createdAt,value
2022-12-03T00:00:56.528Z,77.50
2022-12-03T00:01:57.965Z,77.92
2022-12-03T00:02:59.597Z,78.82
2022-12-03T00:04:01.295Z,78.14
2022-12-03T00:05:03.102Z,78.07
2022-12-03T00:06:04.869Z,78.62
2022-12-03T00:07:06.298Z,78.93
2022-12-03T00:08:07.811Z,78.61
2022-12-03T00:09:09.310Z,78.16
2022-12-03T00:10:11.847Z,78.51
2022-12-03T00:11:13.284Z,77.71
2022-12-03T00:12:14.689Z,78.15
2022-12-03T00:13:16.246Z,77.99
2022-12-03T00:14:17.761Z,78.38
2022-12-03T00:15:19.233Z,77.88
2022-12-03T00:16:20.976Z,77.62
2022-12-03T00:17:22.821Z,77.85
2022-12-03T00:18:24.354Z,77.06
2022-12-03T00:19:25.843Z,76.67
2022-12-03T00:20:27.305Z,76.99
2022-12-03T00:21:28.714Z,77.41
2022-12-03T00:22:30.193Z,77.50
2022-12-03T00:23:32.596Z,78.00
2022-12-03T00:24:36.309Z,77.68
2022-12-03T00:25:37.859Z,78.04
2022-12-03T00:26:39.296Z,77.57
2022-12-03T00:27:41.149Z,77.37
2022-12-03T00:28:42.568Z,77.43
2022-12-03T00:29:44.060Z,77.60
2022-12-03T00:30:45.558Z,77.77
2022-12-03T00:31:47.052Z,77.34
2022-12-03T00:32:48.899Z,77.24
2022-12-03T00:33:51.597Z,76.57
2022-12-03T00:34:53.400Z,76.86
2022-12-03T00:35:55.056Z,77.32
2022-12-03T00:36:56.473Z,78.28
2022-12-03T00:37:58.321Z,77.65
2022-12-03T00:38:59.756Z,77.73
2022-12-03T00:40:02.641Z,77.55
2022-12-03T00:41:04.286Z,77.73
2022-12-03T00:42:05.821Z,78.04
2022-12-03T00:43:07.738Z,78.15
2022-12-03T00:44:09.139Z,77.61
2022-12-03T00:45:10.859Z,77.67
2022-12-03T00:46:14.790Z,78.10
2022-12-03T00:47:19.999Z,78.43
2022-12-03T00:48:21.429Z,78.65
2022-12-03T00:49:22.915Z,78.18
2022-12-03T00:50:24.509Z,78.63
2022-12-03T00:51:25.919Z,78.27
2022-12-03T00:52:27.697Z,78.90
2022-12-03T00:53:29.170Z,78.87
2022-12-03T00:54:32.312Z,78.53
2022-12-03T00:55:33.861Z,78.19
2022-12-03T00:56:35.316Z,78.29
2022-12-03T00:57:37.068Z,78.15
2022-12-03T00:58:38.535Z,78.66
2022-12-03T00:59:39.964Z,77.94
2022-12-03T01:00:41.398Z,78.95
2022-12-03T01:01:42.913Z,78.48
2022-12-03T01:02:44.476Z,78.65
2022-12-03T01:03:45.925Z,78.25
2022-12-03T01:04:47.515Z,78.25
2022-12-03T01:05:49.041Z,78.56
2022-12-03T01:06:50.471Z,78.27
2022-12-03T01:07:52.242Z,78.58
2022-12-03T01:08:53.777Z,77.96
2022-12-03T01:09:55.189Z,77.85
2022-12-03T01:10:56.631Z,78.15
2022-12-03T01:11:58.448Z,78.14
2022-12-03T01:12:59.888Z,78.44
2022-12-03T01:14:01.463Z,78.22
2022-12-03T01:15:03.149Z,77.44
2022-12-03T01:16:04.952Z,77.92
2022-12-03T01:17:07.231Z,77.95
2022-12-03T01:18:08.638Z,78.65
2022-12-03T01:19:11.090Z,78.27
2022-12-03T01:20:13.562Z,77.70
2022-12-03T01:21:15.026Z,77.91
2022-12-03T01:22:16.860Z,78.10
2022-12-03T01:23:18.300Z,78.01
2022-12-03T01:24:20.052Z,77.72
2022-12-03T01:25:21.723Z,78.10
2022-12-03T01:26:23.454Z,78.23
2022-12-03T01:27:25.281Z,77.38
2022-12-03T01:28:26.959Z,77.24
2022-12-03T01:29:28.472Z,77.38
2022-12-03T01:30:49.922Z,78.15
2022-12-03T01:32:10.055Z,78.27
2022-12-03T01:33:11.905Z,76.87
2022-12-03T01:34:13.347Z,77.11
2022-12-03T01:35:14.936Z,77.42
2022-12-03T01:36:16.469Z,78.07
2022-12-03T01:37:20.280Z,78.17
2022-12-03T01:38:22.166Z,78.10
2022-12-03T01:39:23.837Z,78.51
2022-12-03T01:40:25.311Z,78.30
2022-12-03T01:41:27.197Z,77.96
2022-12-03T01:42:32.551Z,77.85
2022-12-03T01:43:34.076Z,78.59
2022-12-03T01:44:37.156Z,77.92
2022-12-03T01:45:38.488Z,78.16
2022-12-03T01:46:41.334Z,78.36
2022-12-03T01:47:42.821Z,78.01
2022-12-03T01:48:46.052Z,78.49
2022-12-03T01:49:54.987Z,77.95
2022-12-03T01:50:56.483Z,78.15
2022-12-03T01:51:59.043Z,78.14
2022-12-03T01:53:02.968Z,78.18
2022-12-03T01:54:05.343Z,78.02
2022-12-03T01:55:13.713Z,78.04
2022-12-03T01:56:17.126Z,77.59
2022-12-03T01:57:18.493Z,77.58
2022-12-03T01:58:26.500Z,77.81
2022-12-03T01:59:35.755Z,78.03
2022-12-03T02:00:37.075Z,77.63
2022-12-03T02:01:38.525Z,77.33
2022-12-03T02:02:40.066Z,77.03
2022-12-03T02:03:42.684Z,77.64
2022-12-03T02:04:44.441Z,77.29
2022-12-03T02:05:45.897Z,77.57
2022-12-03T02:06:47.402Z,77.38
2022-12-03T02:07:49.077Z,77.60
2022-12-03T02:08:51.449Z,77.76
2022-12-03T02:09:54.527Z,78.61
2022-12-03T02:10:56.614Z,78.37
2022-12-03T02:11:58.057Z,78.61
2022-12-03T02:13:06.268Z,78.08
2022-12-03T02:14:12.558Z,78.12
2022-12-03T02:15:14.331Z,78.78
2022-12-03T02:16:16.007Z,78.20
2022-12-03T02:17:18.058Z,77.88
2022-12-03T02:18:19.722Z,78.16
2022-12-03T02:19:31.913Z,78.65
2022-12-03T02:20:42.068Z,78.66
2022-12-03T02:22:05.284Z,78.32
2022-12-03T02:23:28.832Z,78.33
2022-12-03T02:24:33.328Z,78.19
2022-12-03T02:25:36.878Z,78.62
2022-12-03T02:26:38.621Z,78.64
2022-12-03T02:27:40.787Z,78.16
2022-12-03T02:28:42.543Z,78.31
2022-12-03T02:29:44.537Z,78.20
2022-12-03T02:30:46.169Z,78.46
2022-12-03T02:31:47.700Z,78.10
2022-12-03T02:32:50.763Z,78.09
2022-12-03T02:33:52.573Z,78.78
2022-12-03T02:34:54.871Z,78.16
2022-12-03T02:36:01.946Z,78.52
2022-12-03T02:37:07.630Z,78.36
2022-12-03T02:38:17.776Z,78.90
2022-12-03T02:39:19.567Z,78.64
2022-12-03T02:40:24.588Z,79.06
2022-12-03T02:41:44.774Z,78.83
2022-12-03T02:42:47.170Z,78.90
2022-12-03T02:43:48.607Z,78.71
2022-12-03T02:44:50.662Z,78.22
2022-12-03T02:45:55.445Z,78.44
2022-12-03T02:46:56.924Z,78.72
2022-12-03T02:48:06.288Z,78.27
2022-12-03T02:49:08.402Z,78.51
2022-12-03T02:50:12.424Z,78.41
2022-12-03T02:51:13.872Z,78.67
2022-12-03T02:52:15.423Z,78.86
2022-12-03T02:53:21.102Z,78.72
2022-12-03T02:54:23.133Z,78.92
2022-12-03T02:55:25.484Z,78.19
2022-12-03T02:56:31.186Z,77.98
2022-12-03T02:57:34.577Z,78.25
2022-12-03T02:58:36.420Z,78.35
2022-12-03T02:59:38.281Z,78.13
2022-12-03T03:00:40.078Z,78.09
2022-12-03T03:01:41.904Z,78.36
2022-12-03T03:02:45.401Z,78.10
2022-12-03T03:03:48.027Z,78.21
2022-12-03T03:04:49.615Z,78.00
2022-12-03T03:05:51.502Z,77.90
2022-12-03T03:06:53.070Z,78.26
2022-12-03T03:07:56.475Z,78.46
2022-12-03T03:08:58.172Z,78.21
2022-12-03T03:10:00.410Z,78.07
2022-12-03T03:11:02.362Z,78.20
2022-12-03T03:12:04.035Z,77.89
2022-12-03T03:13:13.923Z,78.17
2022-12-03T03:14:15.699Z,77.73
2022-12-03T03:15:17.260Z,77.33
2022-12-03T03:16:18.783Z,77.68
2022-12-03T03:17:20.315Z,77.78
2022-12-03T03:18:21.826Z,77.40
2022-12-03T03:19:25.514Z,78.07
2022-12-03T03:20:26.994Z,77.55
2022-12-03T03:21:28.474Z,77.86
2022-12-03T03:22:34.601Z,77.72
2022-12-03T03:23:36.194Z,77.83
2022-12-03T03:24:37.838Z,78.01
2022-12-03T03:25:42.177Z,78.32
2022-12-03T03:26:43.937Z,78.27
2022-12-03T03:27:45.883Z,77.84
2022-12-03T03:28:49.972Z,78.53
2022-12-03T03:29:51.695Z,77.93
2022-12-03T03:30:53.634Z,78.15
2022-12-03T03:31:55.354Z,78.43
2022-12-03T03:32:57.464Z,78.24
2022-12-03T03:33:58.928Z,78.41
2022-12-03T03:35:00.774Z,77.84
2022-12-03T03:36:02.885Z,78.08
2022-12-03T03:37:04.481Z,76.96
2022-12-03T03:38:08.174Z,76.80
2022-12-03T03:39:10.097Z,76.70
2022-12-03T03:40:12.090Z,76.22
2022-12-03T03:41:15.290Z,76.96
2022-12-03T03:42:17.006Z,77.12
2022-12-03T03:43:22.338Z,77.21
2022-12-03T03:44:23.888Z,77.19
2022-12-03T03:45:28.978Z,77.64
2022-12-03T03:46:33.757Z,77.80
2022-12-03T03:47:35.703Z,78.47
2022-12-03T03:48:38.050Z,78.16
2022-12-03T03:49:39.993Z,77.36
2022-12-03T03:50:43.386Z,76.79
2022-12-03T03:51:45.204Z,76.98
2022-12-03T03:52:46.799Z,76.62
2022-12-03T03:53:49.882Z,77.80
2022-12-03T03:54:51.339Z,76.80
2022-12-03T03:55:53.118Z,77.01
2022-12-03T03:56:54.915Z,76.98
2022-12-03T03:57:56.609Z,77.01
2022-12-03T03:58:58.326Z,77.70
2022-12-03T04:00:00.399Z,77.61
2022-12-03T04:01:01.968Z,77.21
2022-12-03T04:02:04.175Z,76.85
2022-12-03T04:03:06.312Z,76.98
2022-12-03T04:04:19.914Z,77.00
2022-12-03T04:05:23.930Z,77.59
2022-12-03T04:06:27.050Z,77.63
2022-12-03T04:07:28.723Z,77.81
2022-12-03T04:08:30.281Z,77.71
2022-12-03T04:09:31.780Z,77.48
2022-12-03T04:10:51.843Z,77.38
2022-12-03T04:12:11.998Z,77.56
2022-12-03T04:13:13.538Z,77.79
2022-12-03T04:14:14.946Z,77.64
2022-12-03T04:15:16.420Z,77.63
2022-12-03T04:16:17.951Z,78.04
2022-12-03T04:17:19.761Z,77.90
2022-12-03T04:18:39.754Z,78.18
2022-12-03T04:19:41.153Z,78.13
2022-12-03T04:20:42.632Z,77.34
2022-12-03T04:22:02.951Z,76.71
2022-12-03T04:23:04.941Z,76.99
2022-12-03T04:24:07.921Z,77.39
2022-12-03T04:25:29.099Z,77.95
2022-12-03T04:26:49.213Z,77.42
2022-12-03T04:28:09.285Z,77.75
2022-12-03T04:29:11.190Z,77.77
2022-12-03T04:30:12.974Z,77.93
2022-12-03T04:31:34.675Z,78.17
2022-12-03T04:32:55.115Z,78.41
2022-12-03T04:34:14.990Z,78.69
2022-12-03T04:35:35.265Z,78.37
2022-12-03T04:36:36.753Z,78.46
2022-12-03T04:37:38.194Z,78.07
2022-12-03T04:38:39.619Z,78.02
2022-12-03T04:39:41.041Z,78.61
2022-12-03T04:41:00.892Z,78.24
2022-12-03T04:42:03.093Z,78.63
2022-12-03T04:43:04.831Z,78.80
2022-12-03T04:44:25.033Z,78.39
2022-12-03T04:45:26.481Z,78.78
2022-12-03T04:46:27.939Z,78.08
2022-12-03T04:47:29.415Z,79.07
2022-12-03T04:48:30.858Z,78.84
2022-12-03T04:49:32.988Z,78.85
2022-12-03T04:50:34.470Z,79.18
2022-12-03T04:51:35.928Z,79.23
2022-12-03T04:52:37.669Z,79.79
2022-12-03T04:53:44.748Z,79.17
2022-12-03T04:54:47.639Z,79.53
2022-12-03T04:55:49.110Z,79.49
2022-12-03T04:56:50.603Z,79.89
2022-12-03T04:57:52.378Z,79.36
2022-12-03T04:58:53.851Z,79.36
2022-12-03T04:59:55.275Z,78.81
2022-12-03T05:00:56.779Z,78.88
2022-12-03T05:01:58.590Z,79.15
2022-12-03T05:03:00.535Z,79.17
2022-12-03T05:04:02.080Z,79.09
2022-12-03T05:05:03.727Z,79.16
2022-12-03T05:06:05.286Z,79.29
2022-12-03T05:07:06.745Z,78.59
2022-12-03T05:08:08.633Z,78.58
2022-12-03T05:09:10.862Z,79.50
2022-12-03T05:10:12.680Z,78.50
2022-12-03T05:11:14.395Z,79.27
2022-12-03T05:12:15.829Z,79.79
2022-12-03T05:13:17.622Z,79.76
2022-12-03T05:14:19.093Z,79.48
2022-12-03T05:15:20.557Z,78.42
2022-12-03T05:16:22.509Z,78.28
2022-12-03T05:17:23.973Z,78.97
2022-12-03T05:18:25.752Z,78.14
2022-12-03T05:19:47.264Z,78.69
2022-12-03T05:20:53.179Z,78.69
2022-12-03T05:21:55.177Z,78.76
2022-12-03T05:22:56.753Z,78.87
2022-12-03T05:23:58.327Z,79.39
2022-12-03T05:24:59.734Z,79.56
2022-12-03T05:26:01.152Z,79.24
2022-12-03T05:27:02.567Z,79.94
2022-12-03T05:28:05.035Z,79.73
2022-12-03T05:29:07.575Z,79.87
2022-12-03T05:30:09.643Z,79.75
2022-12-03T05:31:11.300Z,79.59
2022-12-03T05:32:12.757Z,78.83
2022-12-03T05:33:14.218Z,79.46
2022-12-03T05:34:15.958Z,79.51
2022-12-03T05:35:17.680Z,79.12
2022-12-03T05:36:19.177Z,79.56
2022-12-03T05:37:20.602Z,79.24
2022-12-03T05:38:22.117Z,80.16
2022-12-03T05:39:23.987Z,79.75
2022-12-03T05:40:25.613Z,80.17
2022-12-03T05:41:45.554Z,80.58
2022-12-03T05:42:56.935Z,80.27
2022-12-03T05:43:58.420Z,80.12
2022-12-03T05:45:00.049Z,80.38
2022-12-03T05:46:01.627Z,80.26
2022-12-03T05:47:03.147Z,80.36
2022-12-03T05:48:06.724Z,80.56
2022-12-03T05:49:08.125Z,80.43
2022-12-03T05:50:10.178Z,81.03
2022-12-03T05:51:11.647Z,81.13
2022-12-03T05:52:13.114Z,81.08
2022-12-03T05:53:16.285Z,81.14
2022-12-03T05:54:17.699Z,81.34
2022-12-03T05:55:19.378Z,81.05
2022-12-03T05:56:20.886Z,81.59
2022-12-03T05:57:22.297Z,82.07
2022-12-03T05:58:23.721Z,81.76
2022-12-03T05:59:25.483Z,81.16
2022-12-03T06:00:34.554Z,81.81
2022-12-03T06:01:37.896Z,81.18
2022-12-03T06:02:39.463Z,81.91
2022-12-03T06:03:41.024Z,81.15
2022-12-03T06:04:42.615Z,81.13
2022-12-03T06:05:44.091Z,81.14
2022-12-03T06:06:45.513Z,81.48
2022-12-03T06:07:48.652Z,81.20
2022-12-03T06:08:50.147Z,81.43
2022-12-03T06:09:51.562Z,80.58
2022-12-03T06:10:53.026Z,81.08
2022-12-03T06:11:54.442Z,80.76
2022-12-03T06:12:56.010Z,80.94
2022-12-03T06:13:57.488Z,80.96
2022-12-03T06:14:59.976Z,80.33
2022-12-03T06:16:01.481Z,80.25
2022-12-03T06:17:03.164Z,80.48
2022-12-03T06:18:23.154Z,80.94
2022-12-03T06:19:24.571Z,80.61
2022-12-03T06:20:26.000Z,80.69
2022-12-03T06:21:27.435Z,81.18
2022-12-03T06:22:28.910Z,80.98
2022-12-03T06:23:30.302Z,80.83
2022-12-03T06:24:31.705Z,81.03
2022-12-03T06:25:33.134Z,80.78
2022-12-03T06:26:34.558Z,80.64
2022-12-03T06:27:36.321Z,80.71
2022-12-03T06:28:37.832Z,80.30
2022-12-03T06:29:39.287Z,80.52
2022-12-03T06:30:41.029Z,80.50
2022-12-03T06:31:42.605Z,80.09
2022-12-03T06:32:44.097Z,80.85
2022-12-03T06:33:45.518Z,81.28
2022-12-03T06:34:46.943Z,80.74
2022-12-03T06:35:48.661Z,81.48
2022-12-03T06:36:50.281Z,80.56
2022-12-03T06:37:51.762Z,80.87
2022-12-03T06:38:54.002Z,80.38
2022-12-03T06:39:55.419Z,79.66
2022-12-03T06:40:56.857Z,80.28
2022-12-03T06:41:58.407Z,80.07
2022-12-03T06:42:59.801Z,79.76
2022-12-03T06:44:01.284Z,80.21
2022-12-03T06:45:03.501Z,79.44
2022-12-03T06:46:05.179Z,79.78
2022-12-03T06:47:06.634Z,79.17
2022-12-03T06:48:08.088Z,79.99
2022-12-03T06:49:09.545Z,79.25
2022-12-03T06:50:12.120Z,79.15
2022-12-03T06:51:13.538Z,79.57
2022-12-03T06:52:15.060Z,79.53
2022-12-03T06:53:16.520Z,79.72
2022-12-03T06:54:18.066Z,79.15
2022-12-03T06:55:19.944Z,78.89
2022-12-03T06:56:22.642Z,79.59
2022-12-03T06:57:24.287Z,79.24
2022-12-03T06:58:25.697Z,78.85
2022-12-03T06:59:27.278Z,79.18
2022-12-03T07:00:29.241Z,79.13
2022-12-03T07:01:30.723Z,79.53
2022-12-03T07:02:32.240Z,79.20
2022-12-03T07:03:33.737Z,79.05
2022-12-03T07:04:35.173Z,79.15
2022-12-03T07:05:37.003Z,79.49
2022-12-03T07:06:38.504Z,79.34
2022-12-03T07:07:40.033Z,79.71
2022-12-03T07:08:41.795Z,79.22
2022-12-03T07:09:43.256Z,79.34
2022-12-03T07:10:44.781Z,80.09
2022-12-03T07:11:46.220Z,79.46
2022-12-03T07:12:47.663Z,79.78
2022-12-03T07:13:49.095Z,79.47
2022-12-03T07:14:50.571Z,79.77
2022-12-03T07:15:52.343Z,80.62
2022-12-03T07:16:53.793Z,79.90
2022-12-03T07:17:55.226Z,79.82
2022-12-03T07:18:56.647Z,79.42
2022-12-03T07:19:58.110Z,79.25
2022-12-03T07:20:59.527Z,79.26
2022-12-03T07:22:01.240Z,79.55
2022-12-03T07:23:02.781Z,79.40
2022-12-03T07:24:04.426Z,79.35
2022-12-03T07:25:06.857Z,79.44
2022-12-03T07:26:08.458Z,79.31
2022-12-03T07:27:10.235Z,79.99
2022-12-03T07:28:11.658Z,79.27
2022-12-03T07:29:13.475Z,79.63
2022-12-03T07:30:16.258Z,79.30
2022-12-03T07:31:17.770Z,79.42
2022-12-03T07:32:19.329Z,78.84
2022-12-03T07:33:20.812Z,78.85
2022-12-03T07:34:22.269Z,78.46
2022-12-03T07:35:23.689Z,78.69
2022-12-03T07:36:25.163Z,78.69
2022-12-03T07:37:26.733Z,79.22
2022-12-03T07:38:28.138Z,79.63
2022-12-03T07:39:29.838Z,79.15
2022-12-03T07:40:31.635Z,79.29
2022-12-03T07:41:33.153Z,79.01
2022-12-03T07:42:34.606Z,78.70
2022-12-03T07:43:36.111Z,78.43
2022-12-03T07:44:37.562Z,78.73
2022-12-03T07:45:39.011Z,78.53
2022-12-03T07:46:41.128Z,78.65
2022-12-03T07:47:42.594Z,79.16
2022-12-03T07:48:44.022Z,79.02
2022-12-03T07:49:46.007Z,79.21
2022-12-03T07:50:47.411Z,78.80
2022-12-03T07:51:54.339Z,77.79
2022-12-03T07:52:56.396Z,78.66
2022-12-03T07:53:58.207Z,78.46
2022-12-03T07:54:59.611Z,78.06
2022-12-03T07:56:01.026Z,79.03
2022-12-03T07:57:02.505Z,78.44
2022-12-03T07:58:03.946Z,78.49
2022-12-03T07:59:05.405Z,78.78
2022-12-03T08:00:07.686Z,78.79
2022-12-03T08:01:10.311Z,79.11
2022-12-03T08:02:13.102Z,78.52
2022-12-03T08:03:16.136Z,78.39
2022-12-03T08:04:19.000Z,78.86
2022-12-03T08:05:20.407Z,78.98
2022-12-03T08:06:21.821Z,78.77
2022-12-03T08:07:23.373Z,78.61
2022-12-03T08:08:24.856Z,78.79
2022-12-03T08:09:26.532Z,78.81
2022-12-03T08:10:27.931Z,78.63
2022-12-03T08:11:29.663Z,78.12
2022-12-03T08:12:42.614Z,78.16
2022-12-03T08:13:44.040Z,78.94
2022-12-03T08:14:45.506Z,78.14
2022-12-03T08:15:46.964Z,78.07
2022-12-03T08:16:48.811Z,78.37
2022-12-03T08:17:54.901Z,78.20
2022-12-03T08:18:57.931Z,77.88
2022-12-03T08:19:59.241Z,77.93
2022-12-03T08:21:00.734Z,77.73
2022-12-03T08:22:02.152Z,77.80
2022-12-03T08:23:11.354Z,78.33
2022-12-03T08:24:17.475Z,78.02
2022-12-03T08:25:27.233Z,77.73
2022-12-03T08:26:28.825Z,79.50
2022-12-03T08:27:30.217Z,79.31
2022-12-03T08:28:31.953Z,79.49
2022-12-03T08:29:33.453Z,79.60
2022-12-03T08:30:34.966Z,79.22
2022-12-03T08:31:36.516Z,79.91
2022-12-03T08:32:38.099Z,79.57
2022-12-03T08:33:42.116Z,79.48
2022-12-03T08:34:44.551Z,80.08
2022-12-03T08:35:50.754Z,79.96
2022-12-03T08:37:01.490Z,79.62
2022-12-03T08:38:11.318Z,79.72
2022-12-03T08:39:37.843Z,79.72
2022-12-03T08:40:42.053Z,79.98
2022-12-03T08:42:01.921Z,79.74
2022-12-03T08:43:13.805Z,80.03
2022-12-03T08:44:27.189Z,80.25
2022-12-03T08:45:40.198Z,78.84
2022-12-03T08:46:41.811Z,78.79
2022-12-03T08:47:43.264Z,78.99
2022-12-03T08:48:48.964Z,78.73
2022-12-03T08:50:28.533Z,78.36
2022-12-03T08:51:30.030Z,78.72
2022-12-03T08:52:34.294Z,78.45
2022-12-03T08:53:46.730Z,78.30
2022-12-03T08:54:56.067Z,78.48
2022-12-03T08:56:12.983Z,78.27
2022-12-03T08:57:28.362Z,78.17
2022-12-03T08:58:43.668Z,78.59
2022-12-03T08:59:45.835Z,77.99
2022-12-03T09:00:47.634Z,77.87
2022-12-03T09:01:50.143Z,77.93
2022-12-03T09:02:54.371Z,78.01
2022-12-03T09:03:58.828Z,77.88
2022-12-03T09:05:15.623Z,77.53
2022-12-03T09:06:17.049Z,78.17
2022-12-03T09:07:18.539Z,77.71
2022-12-03T09:08:20.007Z,77.38
2022-12-03T09:09:23.044Z,77.28
2022-12-03T09:10:24.517Z,77.78
2022-12-03T09:11:26.007Z,77.32
2022-12-03T09:12:27.664Z,77.36
2022-12-03T09:13:29.439Z,77.58
2022-12-03T09:14:31.512Z,77.76
2022-12-03T09:15:33.055Z,77.26
2022-12-03T09:16:34.580Z,76.98
2022-12-03T09:17:36.220Z,78.01
2022-12-03T09:18:37.688Z,77.65
2022-12-03T09:19:46.296Z,77.94
2022-12-03T09:20:47.946Z,77.41
2022-12-03T09:21:49.492Z,77.34
2022-12-03T09:22:50.998Z,77.07
2022-12-03T09:23:52.465Z,78.08
2022-12-03T09:24:54.244Z,77.36
2022-12-03T09:25:56.166Z,77.38
2022-12-03T09:26:57.616Z,77.09
2022-12-03T09:27:59.049Z,77.47
2022-12-03T09:29:00.487Z,77.58
2022-12-03T09:30:02.049Z,76.96
2022-12-03T09:31:03.754Z,76.30
2022-12-03T09:32:05.243Z,76.67
2022-12-03T09:33:06.850Z,76.81
2022-12-03T09:34:09.063Z,77.08
2022-12-03T09:35:10.613Z,77.17
2022-12-03T09:36:20.894Z,77.30
2022-12-03T09:37:22.470Z,76.91
2022-12-03T09:38:23.893Z,76.96
2022-12-03T09:39:25.351Z,77.37
2022-12-03T09:40:26.855Z,76.96
2022-12-03T09:41:32.031Z,77.01
2022-12-03T09:42:34.232Z,77.33
2022-12-03T09:44:02.892Z,77.32
2022-12-03T09:44:59.093Z,77.65
2022-12-03T09:46:01.263Z,77.32
2022-12-03T09:47:04.681Z,77.63
2022-12-03T09:48:06.196Z,77.52
2022-12-03T09:49:15.519Z,77.31
2022-12-03T09:50:23.392Z,77.19
2022-12-03T09:51:32.590Z,77.35
2022-12-03T09:52:34.314Z,76.73
2022-12-03T09:53:41.193Z,77.51
2022-12-03T09:54:47.257Z,77.49
2022-12-03T09:55:49.937Z,76.46
2022-12-03T09:56:53.328Z,76.96
2022-12-03T09:57:56.565Z,77.04
2022-12-03T09:58:58.317Z,77.19
2022-12-03T10:00:00.049Z,77.58
2022-12-03T10:01:13.850Z,76.79
2022-12-03T10:02:29.353Z,77.08
2022-12-03T10:03:31.987Z,77.07
2022-12-03T10:04:33.501Z,77.25
2022-12-03T10:05:35.722Z,77.51
2022-12-03T10:06:43.994Z,77.63
2022-12-03T10:07:49.187Z,77.12
2022-12-03T10:08:54.626Z,76.78
2022-12-03T10:09:56.293Z,77.24
2022-12-03T10:10:58.898Z,77.03
2022-12-03T10:12:00.792Z,76.80
2022-12-03T10:13:03.441Z,76.65
2022-12-03T10:14:05.517Z,76.66
2022-12-03T10:15:12.405Z,76.59
2022-12-03T10:16:17.907Z,77.21
2022-12-03T10:17:19.488Z,77.38
2022-12-03T10:18:29.806Z,76.74
2022-12-03T10:19:35.455Z,77.32
2022-12-03T10:20:36.972Z,76.94
2022-12-03T10:21:39.164Z,77.17
2022-12-03T10:22:40.630Z,76.81
2022-12-03T10:23:42.132Z,76.51
2022-12-03T10:24:45.219Z,76.33
2022-12-03T10:25:56.734Z,76.88
2022-12-03T10:27:20.659Z,76.91
2022-12-03T10:28:33.575Z,76.21
2022-12-03T10:29:35.964Z,77.22
2022-12-03T10:30:37.483Z,77.19
2022-12-03T10:31:39.444Z,77.38
2022-12-03T10:32:47.600Z,77.89
2022-12-03T10:33:58.087Z,77.14
2022-12-03T10:35:12.710Z,77.40
2022-12-03T10:36:23.377Z,77.11
2022-12-03T10:37:24.832Z,77.02
2022-12-03T10:38:26.571Z,77.33
2022-12-03T10:39:27.984Z,77.47
2022-12-03T10:40:34.444Z,76.83
2022-12-03T10:41:37.752Z,77.40
2022-12-03T10:42:40.908Z,77.63
2022-12-03T10:43:42.659Z,77.39
2022-12-03T10:44:44.239Z,77.50
2022-12-03T10:45:47.915Z,76.89
2022-12-03T10:47:25.730Z,76.29
2022-12-03T10:48:30.672Z,76.55
2022-12-03T10:49:33.102Z,76.82
2022-12-03T10:50:35.322Z,77.11
2022-12-03T10:51:39.332Z,76.44
2022-12-03T10:52:40.799Z,76.80
2022-12-03T10:53:42.414Z,76.25
2022-12-03T10:54:43.859Z,76.25
2022-12-03T10:55:47.627Z,76.79
2022-12-03T10:56:51.199Z,76.97
2022-12-03T10:57:52.696Z,77.14
2022-12-03T10:58:55.128Z,76.36
2022-12-03T10:59:56.565Z,76.18
2022-12-03T11:00:58.740Z,76.03
2022-12-03T11:02:00.318Z,76.52
2022-12-03T11:03:01.878Z,75.92
2022-12-03T11:04:05.038Z,75.91
2022-12-03T11:05:07.063Z,76.43
2022-12-03T11:06:20.310Z,77.23
2022-12-03T11:07:22.031Z,76.97
2022-12-03T11:08:26.151Z,76.99
2022-12-03T11:09:33.244Z,76.64
2022-12-03T11:10:35.429Z,76.26
2022-12-03T11:11:36.998Z,76.31
2022-12-03T11:12:38.453Z,76.04
2022-12-03T11:13:39.805Z,76.62
2022-12-03T11:14:54.537Z,76.62
2022-12-03T11:15:57.502Z,76.85
2022-12-03T11:16:58.938Z,76.47
2022-12-03T11:18:00.681Z,76.15
2022-12-03T11:19:03.028Z,76.24
2022-12-03T11:20:05.434Z,76.44
2022-12-03T11:21:11.691Z,76.19
2022-12-03T11:22:13.054Z,76.43
2022-12-03T11:23:14.465Z,76.61
2022-12-03T11:24:19.957Z,75.62
2022-12-03T11:25:27.625Z,75.68
2022-12-03T11:26:29.348Z,75.96
2022-12-03T11:27:31.396Z,75.66
2022-12-03T11:28:35.076Z,75.51
2022-12-03T11:29:57.266Z,75.79
2022-12-03T11:31:11.879Z,76.46
2022-12-03T11:32:37.978Z,75.97
2022-12-03T11:33:40.989Z,76.37
2022-12-03T11:34:42.477Z,76.21
2022-12-03T11:36:02.697Z,76.84
2022-12-03T11:37:10.278Z,77.36
2022-12-03T11:38:50.714Z,77.56
2022-12-03T11:40:24.994Z,77.00
2022-12-03T11:41:29.980Z,77.35
2022-12-03T11:42:40.981Z,77.06
2022-12-03T11:43:57.373Z,76.70
2022-12-03T11:45:10.820Z,76.67
2022-12-03T11:46:12.307Z,76.87
2022-12-03T11:47:16.203Z,76.24
2022-12-03T11:48:18.702Z,76.41
2022-12-03T11:49:20.220Z,76.82
2022-12-03T11:50:28.166Z,76.72
2022-12-03T11:51:31.041Z,76.68
2022-12-03T11:52:41.856Z,76.52
2022-12-03T11:53:45.013Z,76.38
2022-12-03T11:54:51.320Z,76.59
2022-12-03T11:56:06.777Z,77.10
2022-12-03T11:57:38.555Z,76.81
2022-12-03T11:58:43.066Z,76.39
2022-12-03T12:00:04.456Z,76.58
2022-12-03T12:01:07.817Z,76.38
2022-12-03T12:02:21.493Z,76.66
2022-12-03T12:03:33.297Z,77.27
2022-12-03T12:04:38.000Z,77.14
2022-12-03T12:05:39.578Z,76.52
2022-12-03T12:06:43.635Z,77.09
2022-12-03T12:07:48.244Z,76.71
2022-12-03T12:08:49.744Z,77.01
2022-12-03T12:09:57.368Z,77.04
2022-12-03T12:10:59.285Z,76.52
2022-12-03T12:12:26.855Z,77.07
2022-12-03T12:13:48.181Z,76.45
2022-12-03T12:14:49.618Z,76.01
2022-12-03T12:15:51.508Z,76.35
2022-12-03T12:16:55.154Z,76.04
2022-12-03T12:17:56.690Z,76.63
2022-12-03T12:19:18.136Z,75.86
2022-12-03T12:20:23.556Z,75.97
2022-12-03T12:21:48.165Z,76.04
2022-12-03T12:22:49.723Z,76.13
2022-12-03T12:23:51.267Z,75.50
2022-12-03T12:25:03.458Z,75.90
2022-12-03T12:26:08.395Z,75.89
2022-12-03T12:27:15.241Z,75.94
2022-12-03T12:28:16.722Z,75.27
2022-12-03T12:29:18.258Z,75.47
2022-12-03T12:30:21.942Z,76.03
2022-12-03T12:31:24.217Z,75.85
2022-12-03T12:32:34.006Z,75.35
2022-12-03T12:33:36.266Z,75.56
2022-12-03T12:34:43.608Z,75.54
2022-12-03T12:35:49.184Z,75.07
2022-12-03T12:36:51.949Z,75.43
2022-12-03T12:38:12.959Z,75.26
2022-12-03T12:39:18.946Z,75.63
2022-12-03T12:40:26.916Z,75.70
2022-12-03T12:41:29.573Z,76.07
2022-12-03T12:42:43.207Z,76.00
2022-12-03T12:43:45.293Z,76.21
2022-12-03T12:44:49.676Z,76.30
2022-12-03T12:46:31.452Z,76.12
2022-12-03T12:47:30.222Z,75.59
2022-12-03T12:48:35.298Z,75.29
2022-12-03T12:49:36.727Z,76.42
2022-12-03T12:50:39.480Z,75.89
2022-12-03T12:51:46.335Z,75.52
2022-12-03T12:52:58.840Z,75.76
2022-12-03T12:54:00.532Z,76.26
2022-12-03T12:55:06.393Z,76.16
2022-12-03T12:56:24.008Z,76.71
2022-12-03T12:57:25.521Z,76.95
2022-12-03T12:58:31.813Z,77.22
2022-12-03T12:59:33.263Z,76.80
2022-12-03T13:00:34.719Z,77.06
2022-12-03T13:01:36.867Z,77.02
2022-12-03T13:02:43.333Z,76.28
2022-12-03T13:03:44.838Z,75.88
2022-12-03T13:04:46.286Z,76.40
2022-12-03T13:05:50.108Z,75.94
2022-12-03T13:06:53.884Z,75.88
2022-12-03T13:07:55.919Z,75.60
2022-12-03T13:08:58.783Z,75.23
2022-12-03T13:10:18.902Z,75.96
2022-12-03T13:11:23.031Z,75.93
2022-12-03T13:12:25.125Z,75.22
2022-12-03T13:13:43.311Z,75.95
2022-12-03T13:14:45.607Z,75.84
2022-12-03T13:15:57.543Z,75.97
2022-12-03T13:17:01.444Z,75.31
2022-12-03T13:18:20.607Z,75.61
2022-12-03T13:19:30.434Z,75.55
2022-12-03T13:20:31.848Z,75.60
2022-12-03T13:21:40.984Z,75.49
2022-12-03T13:22:45.289Z,75.51
2022-12-03T13:23:47.101Z,75.82
2022-12-03T13:24:51.207Z,75.58
2022-12-03T13:26:06.856Z,76.03
2022-12-03T13:27:17.539Z,75.83
2022-12-03T13:28:19.578Z,75.57
2022-12-03T13:29:22.799Z,74.74
2022-12-03T13:30:24.497Z,75.15
2022-12-03T13:31:33.339Z,75.77
2022-12-03T13:32:37.839Z,75.46
2022-12-03T13:33:39.335Z,75.60
2022-12-03T13:34:41.027Z,74.69
2022-12-03T13:35:46.750Z,75.43
2022-12-03T13:36:55.377Z,74.53
2022-12-03T13:37:59.388Z,73.91
2022-12-03T13:39:01.225Z,75.34
2022-12-03T13:40:26.320Z,75.25
2022-12-03T13:41:46.925Z,75.29
2022-12-03T13:42:48.598Z,74.61
2022-12-03T13:43:50.021Z,74.77
2022-12-03T13:44:53.221Z,74.95
2022-12-03T13:45:54.770Z,74.58
2022-12-03T13:46:56.530Z,75.57
2022-12-03T13:48:21.269Z,75.28